Terminal Aerodrome Forecast
Issued by NWS Albuquerque, NM

Home | Current Version | Previous Version | Text Only | Print | Product List | Glossary On
Versions: 1 2 3 4 5 6 7 8 9 10 11 12 13 14 15 16
949
FTUS45 KABQ 192333
TAFABQ
TAF
KABQ 192333Z 2000/2024 20015KT P6SM VCSH SCT045 BKN080
      TEMPO 2000/2002 -SHRA BKN035
     FM200200 25007KT P6SM FEW045 BKN080
     FM201000 32007KT P6SM FEW025 SCT045
     FM202000 33012KT P6SM SKC=

USA.gov is the U.S. government's official web portal to all federal, state and local government web resources and services.